createdAt,value
2022-09-24T00:01:57.764Z,15.47
2022-09-24T00:04:03.443Z,15.45
2022-09-24T00:06:06.671Z,15.43
2022-09-24T00:08:09.035Z,15.43
2022-09-24T00:10:10.785Z,15.42
2022-09-24T00:12:13.206Z,15.41
2022-09-24T00:14:16.339Z,15.41
2022-09-24T00:16:20.506Z,15.39
2022-09-24T00:18:22.784Z,15.38
2022-09-24T00:20:24.518Z,15.37
2022-09-24T00:22:26.069Z,15.37
2022-09-24T00:24:46.336Z,15.35
2022-09-24T00:26:51.073Z,15.34
2022-09-24T00:28:53.080Z,15.34
2022-09-24T00:30:55.458Z,15.33
2022-09-24T00:32:56.938Z,15.32
2022-09-24T00:34:59.659Z,15.32
2022-09-24T00:37:01.361Z,15.31
2022-09-24T00:39:04.773Z,15.31
2022-09-24T00:41:06.472Z,15.30
2022-09-24T00:43:28.178Z,15.27
2022-09-24T00:45:31.109Z,15.28
2022-09-24T00:47:39.315Z,15.27
2022-09-24T00:49:44.727Z,15.28
2022-09-24T00:51:50.403Z,15.27
2022-09-24T00:53:56.634Z,15.27
2022-09-24T00:55:59.840Z,15.27
2022-09-24T00:58:04.104Z,15.28
2022-09-24T01:00:07.435Z,15.29
2022-09-24T01:02:09.080Z,15.30
2022-09-24T01:04:14.414Z,15.30
2022-09-24T01:06:16.167Z,15.32
2022-09-24T01:08:19.182Z,15.35
2022-09-24T01:10:49.497Z,15.37
2022-09-24T01:13:03.026Z,15.37
2022-09-24T01:15:04.477Z,15.39
2022-09-24T01:17:25.314Z,15.41
2022-09-24T01:20:07.310Z,15.44
2022-09-24T01:22:27.561Z,15.44
2022-09-24T01:24:38.578Z,15.46
2022-09-24T01:26:43.328Z,15.43
2022-09-24T01:29:27.028Z,15.42
2022-09-24T01:31:54.870Z,15.42
2022-09-24T01:33:58.778Z,15.41
2022-09-24T01:36:08.363Z,15.39
2022-09-24T01:38:15.071Z,15.39
2022-09-24T01:40:18.830Z,15.38
2022-09-24T01:42:23.138Z,15.38
2022-09-24T01:44:26.070Z,15.36
2022-09-24T01:46:32.092Z,15.32
2022-09-24T01:48:40.239Z,15.30
2022-09-24T01:51:05.525Z,15.27
2022-09-24T01:53:21.537Z,15.24
2022-09-24T01:55:28.393Z,15.24
2022-09-24T01:57:35.231Z,15.22
2022-09-24T01:59:42.112Z,15.21
2022-09-24T02:01:50.360Z,15.21
2022-09-24T02:03:57.678Z,15.19
2022-09-24T02:06:04.109Z,15.18
2022-09-24T02:08:11.664Z,15.18
2022-09-24T02:10:17.979Z,15.16
2022-09-24T02:12:29.820Z,15.14
2022-09-24T02:14:36.539Z,15.14
2022-09-24T02:16:45.528Z,15.12
2022-09-24T02:18:50.159Z,15.11
2022-09-24T02:20:53.130Z,15.09
2022-09-24T02:22:57.315Z,15.09
2022-09-24T02:25:03.996Z,15.07
2022-09-24T02:27:05.643Z,15.06
2022-09-24T02:29:07.639Z,15.04
2022-09-24T02:31:16.533Z,15.02
2022-09-24T02:33:39.020Z,15.01
2022-09-24T02:35:40.773Z,14.99
2022-09-24T02:37:44.480Z,14.98
2022-09-24T02:39:47.418Z,14.95
2022-09-24T02:41:50.177Z,14.94
2022-09-24T02:43:52.685Z,14.93
2022-09-24T02:45:54.565Z,14.89
2022-09-24T02:47:56.104Z,14.88
2022-09-24T02:49:57.660Z,14.86
2022-09-24T02:51:59.685Z,14.84
2022-09-24T02:54:01.792Z,14.83
2022-09-24T02:56:04.077Z,14.80
2022-09-24T02:58:05.541Z,14.80
2022-09-24T03:00:07.935Z,14.78
2022-09-24T03:02:09.687Z,14.77
2022-09-24T03:04:15.551Z,14.75
2022-09-24T03:06:17.327Z,14.74
2022-09-24T03:08:20.340Z,14.73
2022-09-24T03:10:21.895Z,14.71
2022-09-24T03:12:23.480Z,14.70
2022-09-24T03:14:27.193Z,14.71
2022-09-24T03:16:28.888Z,14.68
2022-09-24T03:18:30.398Z,14.68
2022-09-24T03:20:32.242Z,14.66
2022-09-24T03:22:34.026Z,14.65
2022-09-24T03:24:35.745Z,14.65
2022-09-24T03:26:39.556Z,14.63
2022-09-24T03:28:41.445Z,14.63
2022-09-24T03:31:02.471Z,14.62
2022-09-24T03:33:04.577Z,14.59
2022-09-24T03:35:08.773Z,14.58
2022-09-24T03:37:10.366Z,14.56
2022-09-24T03:39:12.966Z,14.54
2022-09-24T03:41:16.790Z,14.53
2022-09-24T03:43:18.529Z,14.52
2022-09-24T03:45:20.070Z,14.51
2022-09-24T03:47:21.641Z,14.48
2022-09-24T03:49:23.611Z,14.48
2022-09-24T03:51:25.942Z,14.45
2022-09-24T03:53:27.528Z,14.45
2022-09-24T03:55:29.128Z,14.44
2022-09-24T03:57:30.955Z,14.42
2022-09-24T03:59:32.407Z,14.41
2022-09-24T04:01:37.317Z,14.40
2022-09-24T04:03:40.510Z,14.38
2022-09-24T04:05:42.294Z,14.38
2022-09-24T04:07:45.061Z,14.36
2022-09-24T04:09:46.643Z,14.35
2022-09-24T04:11:52.560Z,14.34
2022-09-24T04:13:54.150Z,14.33
2022-09-24T04:15:58.302Z,14.33
2022-09-24T04:18:00.093Z,14.32
2022-09-24T04:20:01.812Z,14.31
2022-09-24T04:22:03.937Z,14.30
2022-09-24T04:24:05.779Z,14.29
2022-09-24T04:26:07.370Z,14.30
2022-09-24T04:28:10.290Z,14.29
2022-09-24T04:30:15.190Z,14.27
2022-09-24T04:32:16.773Z,14.28
2022-09-24T04:34:18.336Z,14.27
2022-09-24T04:36:22.169Z,14.27
2022-09-24T04:38:24.354Z,14.26
2022-09-24T04:40:27.063Z,14.26
2022-09-24T04:42:28.695Z,14.24
2022-09-24T04:44:31.295Z,14.25
2022-09-24T04:46:37.919Z,14.23
2022-09-24T04:48:42.147Z,14.24
2022-09-24T04:50:46.357Z,14.22
2022-09-24T04:52:52.518Z,14.21
2022-09-24T04:54:54.577Z,14.20
2022-09-24T04:56:56.096Z,14.23
2022-09-24T04:58:58.752Z,14.21
2022-09-24T05:01:03.839Z,14.19
2022-09-24T05:03:05.799Z,14.20
2022-09-24T05:05:08.318Z,14.19
2022-09-24T05:07:10.414Z,14.19
2022-09-24T05:09:12.857Z,14.18
2022-09-24T05:11:14.563Z,14.17
2022-09-24T05:13:16.384Z,14.17
2022-09-24T05:15:25.577Z,14.17
2022-09-24T05:17:27.066Z,14.16
2022-09-24T05:19:28.676Z,14.16
2022-09-24T05:21:31.512Z,14.15
2022-09-24T05:23:33.109Z,14.15
2022-09-24T05:25:54.672Z,14.14
2022-09-24T05:27:57.087Z,14.13
2022-09-24T05:29:59.994Z,14.14
2022-09-24T05:32:12.297Z,14.14
2022-09-24T05:34:14.340Z,14.13
2022-09-24T05:36:19.509Z,14.13
2022-09-24T05:38:21.361Z,14.16
2022-09-24T05:40:41.399Z,14.17
2022-09-24T05:42:43.221Z,14.21
2022-09-24T05:44:47.507Z,14.26
2022-09-24T05:46:53.435Z,14.32
2022-09-24T05:48:57.933Z,14.37
2022-09-24T05:51:03.473Z,14.38
2022-09-24T05:53:06.357Z,14.41
2022-09-24T05:55:10.051Z,14.43
2022-09-24T05:57:15.613Z,14.45
2022-09-24T05:59:20.401Z,14.46
2022-09-24T06:01:22.117Z,14.46
2022-09-24T06:03:23.782Z,14.48
2022-09-24T06:05:25.655Z,14.55
2022-09-24T06:07:33.414Z,14.56
2022-09-24T06:09:35.029Z,14.59
2022-09-24T06:11:40.370Z,14.61
2022-09-24T06:13:42.614Z,14.66
2022-09-24T06:15:44.665Z,14.70
2022-09-24T06:17:47.100Z,14.71
2022-09-24T06:19:51.720Z,14.69
2022-09-24T06:21:53.272Z,14.74
2022-09-24T06:23:54.929Z,14.75
2022-09-24T06:25:57.215Z,14.79
2022-09-24T06:28:01.582Z,14.82
2022-09-24T06:30:04.874Z,14.86
2022-09-24T06:32:06.359Z,14.87
2022-09-24T06:34:08.151Z,14.90
2022-09-24T06:36:09.875Z,14.94
2022-09-24T06:38:13.972Z,14.97
2022-09-24T06:40:16.176Z,15.01
2022-09-24T06:42:17.955Z,15.04
2022-09-24T06:44:19.939Z,15.11
2022-09-24T06:46:25.954Z,15.20
2022-09-24T06:48:28.902Z,15.28
2022-09-24T06:50:32.233Z,15.39
2022-09-24T06:52:34.472Z,15.47
2022-09-24T06:54:36.125Z,15.55
2022-09-24T06:56:37.907Z,15.63
2022-09-24T06:58:39.615Z,15.73
2022-09-24T07:00:43.243Z,15.85
2022-09-24T07:02:54.500Z,16.00
2022-09-24T07:04:56.065Z,16.16
2022-09-24T07:07:16.554Z,16.32
2022-09-24T07:09:18.461Z,16.53
2022-09-24T07:11:20.320Z,16.74
2022-09-24T07:13:22.385Z,16.94
2022-09-24T07:15:24.250Z,17.18
2022-09-24T07:17:32.913Z,17.39
2022-09-24T07:19:35.532Z,17.58
2022-09-24T07:21:38.076Z,17.75
2022-09-24T07:23:40.836Z,17.87
2022-09-24T07:25:42.429Z,17.96
2022-09-24T07:27:44.170Z,18.02
2022-09-24T07:29:45.725Z,18.07
2022-09-24T07:31:47.305Z,18.13
2022-09-24T07:33:49.042Z,18.18
2022-09-24T07:35:51.099Z,18.23
2022-09-24T07:38:12.265Z,18.29
2022-09-24T07:40:14.146Z,18.35
2022-09-24T07:42:15.869Z,18.45
2022-09-24T07:44:18.217Z,18.60
2022-09-24T07:46:20.204Z,18.80
2022-09-24T07:48:21.996Z,19.02
2022-09-24T07:50:23.883Z,19.25
2022-09-24T07:52:25.724Z,19.49
2022-09-24T07:54:27.792Z,19.73
2022-09-24T07:56:32.213Z,19.95
2022-09-24T07:58:33.870Z,20.18
2022-09-24T08:00:35.626Z,20.42
2022-09-24T08:02:37.425Z,20.61
2022-09-24T08:04:39.097Z,20.80
2022-09-24T08:06:46.584Z,20.94
2022-09-24T08:08:49.789Z,21.06
2022-09-24T08:10:52.072Z,21.16
2022-09-24T08:12:54.100Z,21.24
2022-09-24T08:14:55.797Z,21.36
2022-09-24T08:16:58.592Z,21.45
2022-09-24T08:19:01.184Z,21.55
2022-09-24T08:21:12.075Z,21.69
2022-09-24T08:23:13.866Z,21.81
2022-09-24T08:25:15.650Z,21.93
2022-09-24T08:27:17.773Z,22.04
2022-09-24T08:29:19.407Z,22.13
2022-09-24T08:31:23.524Z,22.22
2022-09-24T08:33:25.273Z,22.28
2022-09-24T08:35:27.417Z,22.35
2022-09-24T08:37:29.192Z,22.43
2022-09-24T08:39:30.959Z,22.52
2022-09-24T08:41:57.152Z,22.61
2022-09-24T08:44:08.494Z,22.71
2022-09-24T08:46:37.405Z,22.80
2022-09-24T08:48:42.355Z,22.90
2022-09-24T08:50:58.223Z,23.00
2022-09-24T08:53:07.177Z,23.11
2022-09-24T08:55:23.220Z,23.20
2022-09-24T08:57:25.988Z,23.32
2022-09-24T08:59:30.862Z,23.43
2022-09-24T09:01:42.002Z,23.53
2022-09-24T09:03:48.169Z,23.65
2022-09-24T09:05:59.415Z,23.77
2022-09-24T09:08:21.343Z,23.87
2022-09-24T09:10:33.059Z,23.95
2022-09-24T09:12:38.706Z,23.99
2022-09-24T09:15:11.177Z,24.00
2022-09-24T09:17:28.971Z,24.00
2022-09-24T09:19:34.717Z,24.02
2022-09-24T09:21:42.330Z,24.07
2022-09-24T09:23:48.876Z,24.12
2022-09-24T09:25:56.145Z,24.17
2022-09-24T09:28:07.500Z,24.23
2022-09-24T09:30:21.902Z,24.26
2022-09-24T09:32:59.233Z,24.28
2022-09-24T09:35:40.492Z,24.29
2022-09-24T09:37:58.611Z,24.31
2022-09-24T09:40:32.179Z,24.29
2022-09-24T09:42:42.775Z,24.30
2022-09-24T09:44:46.174Z,24.29
2022-09-24T09:47:01.292Z,24.27
2022-09-24T09:49:07.354Z,24.30
2022-09-24T09:51:21.391Z,24.30
2022-09-24T09:53:26.857Z,24.31
2022-09-24T09:55:33.099Z,24.31
2022-09-24T09:57:36.659Z,24.31
2022-09-24T09:59:38.836Z,24.31
2022-09-24T10:01:43.125Z,24.29
2022-09-24T10:03:44.785Z,24.31
2022-09-24T10:06:00.025Z,24.35
2022-09-24T10:08:01.985Z,24.38
2022-09-24T10:10:21.235Z,24.40
2022-09-24T10:12:24.177Z,24.41
2022-09-24T10:14:25.827Z,24.45
2022-09-24T10:16:27.540Z,24.44
2022-09-24T10:18:43.780Z,24.44
2022-09-24T10:20:48.438Z,24.43
2022-09-24T10:22:53.343Z,24.40
2022-09-24T10:24:57.472Z,24.38
2022-09-24T10:26:59.224Z,24.34
2022-09-24T10:29:20.235Z,24.30
2022-09-24T10:31:25.426Z,24.25
2022-09-24T10:33:35.060Z,24.21
2022-09-24T10:35:38.744Z,24.16
2022-09-24T10:37:50.817Z,24.11
2022-09-24T10:40:13.545Z,24.06
2022-09-24T10:42:26.968Z,24.01
2022-09-24T10:44:36.869Z,23.97
2022-09-24T10:46:38.547Z,23.95
2022-09-24T10:48:49.793Z,23.93
2022-09-24T10:51:29.586Z,23.90
2022-09-24T10:53:47.794Z,23.87
2022-09-24T10:56:08.046Z,23.86
2022-09-24T10:58:41.510Z,23.81
2022-09-24T11:01:06.703Z,23.78
2022-09-24T11:03:29.569Z,23.77
2022-09-24T11:05:35.894Z,23.74
2022-09-24T11:07:56.534Z,23.71
2022-09-24T11:10:22.042Z,23.71
2022-09-24T11:12:54.439Z,23.72
2022-09-24T11:15:11.884Z,23.76
2022-09-24T11:17:40.032Z,23.73
2022-09-24T11:20:27.855Z,23.78
2022-09-24T11:22:51.698Z,23.81
2022-09-24T11:25:02.781Z,23.83
2022-09-24T11:27:25.507Z,23.84
2022-09-24T11:29:47.838Z,23.82
2022-09-24T11:32:00.784Z,23.82
2022-09-24T11:34:14.255Z,23.81
2022-09-24T11:36:52.682Z,23.77
2022-09-24T11:39:23.142Z,23.75
2022-09-24T11:41:49.689Z,23.72
2022-09-24T11:44:03.645Z,23.72
2022-09-24T11:46:40.515Z,23.70
2022-09-24T11:49:24.902Z,23.68
2022-09-24T11:51:52.648Z,23.69
2022-09-24T11:54:20.843Z,23.72
2022-09-24T11:56:30.189Z,23.77
2022-09-24T11:58:36.711Z,23.84
2022-09-24T12:00:49.446Z,23.89
2022-09-24T12:02:59.192Z,23.97
2022-09-24T12:05:09.298Z,24.07
2022-09-24T12:07:15.293Z,24.15
2022-09-24T12:09:25.060Z,24.22
2022-09-24T12:11:57.246Z,24.28
2022-09-24T12:14:20.002Z,24.31
2022-09-24T12:16:26.494Z,24.34
2022-09-24T12:18:50.688Z,24.34
2022-09-24T12:20:57.086Z,24.35
2022-09-24T12:23:21.628Z,24.34
2022-09-24T12:25:23.344Z,24.35
2022-09-24T12:27:44.945Z,24.35
2022-09-24T12:30:19.406Z,24.37
2022-09-24T12:32:55.043Z,24.40
2022-09-24T12:35:24.984Z,24.43
2022-09-24T12:37:34.661Z,24.46
2022-09-24T12:39:44.511Z,24.48
2022-09-24T12:42:05.465Z,24.48
2022-09-24T12:44:10.301Z,24.51
2022-09-24T12:46:28.756Z,24.51
2022-09-24T12:48:37.277Z,24.50
2022-09-24T12:50:39.710Z,24.48
2022-09-24T12:52:43.328Z,24.48
2022-09-24T12:54:56.634Z,24.46
2022-09-24T12:57:07.199Z,24.45
2022-09-24T12:59:24.351Z,24.46
2022-09-24T13:01:32.065Z,24.46
2022-09-24T13:03:44.610Z,24.45
2022-09-24T13:05:48.659Z,24.45
2022-09-24T13:08:24.722Z,24.44
2022-09-24T13:10:32.054Z,24.46
2022-09-24T13:12:33.817Z,24.49
2022-09-24T13:14:35.598Z,24.51
2022-09-24T13:16:39.827Z,24.57
2022-09-24T13:18:43.544Z,24.64
2022-09-24T13:20:59.943Z,24.71
2022-09-24T13:23:20.466Z,24.79
2022-09-24T13:25:24.935Z,24.84
2022-09-24T13:27:31.775Z,24.89
2022-09-24T13:29:38.739Z,24.92
2022-09-24T13:31:47.666Z,24.95
2022-09-24T13:34:08.320Z,24.95
2022-09-24T13:36:18.192Z,24.94
2022-09-24T13:38:29.302Z,24.93
2022-09-24T13:40:36.039Z,24.91
2022-09-24T13:42:46.473Z,24.88
2022-09-24T13:44:57.113Z,24.87
2022-09-24T13:47:21.521Z,24.82
2022-09-24T13:49:24.563Z,24.83
2022-09-24T13:51:30.849Z,24.81
2022-09-24T13:53:49.371Z,24.77
2022-09-24T13:55:57.220Z,24.74
2022-09-24T13:57:59.017Z,24.74
2022-09-24T14:00:20.790Z,24.72
2022-09-24T14:02:25.577Z,24.70
2022-09-24T14:04:27.790Z,24.69
2022-09-24T14:06:40.193Z,24.68
2022-09-24T14:08:45.135Z,24.64
2022-09-24T14:10:51.361Z,24.64
2022-09-24T14:13:02.263Z,24.59
2022-09-24T14:15:17.749Z,24.58
2022-09-24T14:17:20.103Z,24.56
2022-09-24T14:19:23.461Z,24.54
2022-09-24T14:21:38.182Z,24.52
2022-09-24T14:23:56.062Z,24.48
2022-09-24T14:26:00.031Z,24.45
2022-09-24T14:28:04.171Z,24.43
2022-09-24T14:30:08.295Z,24.41
2022-09-24T14:32:42.261Z,24.38
2022-09-24T14:34:44.420Z,24.35
2022-09-24T14:36:46.093Z,24.36
2022-09-24T14:38:58.006Z,24.33
2022-09-24T14:41:15.314Z,24.33
2022-09-24T14:43:31.314Z,24.33
2022-09-24T14:45:38.054Z,24.33
2022-09-24T14:47:39.801Z,24.35
2022-09-24T14:49:45.578Z,24.33
2022-09-24T14:51:54.763Z,24.34
2022-09-24T14:54:19.114Z,24.32
2022-09-24T14:56:27.303Z,24.29
2022-09-24T14:58:28.938Z,24.30
2022-09-24T15:00:46.789Z,24.26
2022-09-24T15:03:02.685Z,24.47
2022-09-24T15:05:09.961Z,24.41
2022-09-24T15:07:16.609Z,24.31
2022-09-24T15:09:32.804Z,24.25
2022-09-24T15:11:43.153Z,24.20
2022-09-24T15:13:45.560Z,24.15
2022-09-24T15:15:47.583Z,24.09
2022-09-24T15:17:49.114Z,24.05
2022-09-24T15:19:54.739Z,24.02
2022-09-24T15:22:00.225Z,23.96
2022-09-24T15:24:02.455Z,23.92
2022-09-24T15:26:04.717Z,23.89
2022-09-24T15:28:13.787Z,23.82
2022-09-24T15:30:20.562Z,23.78
2022-09-24T15:32:22.147Z,23.75
2022-09-24T15:34:23.899Z,23.71
2022-09-24T15:36:28.068Z,23.67
2022-09-24T15:38:30.061Z,23.63
2022-09-24T15:40:33.845Z,23.58
2022-09-24T15:42:35.484Z,23.52
2022-09-24T15:44:37.163Z,23.49
2022-09-24T15:46:38.750Z,23.46
2022-09-24T15:48:42.462Z,23.41
2022-09-24T15:50:46.367Z,23.38
2022-09-24T15:52:59.125Z,23.34
2022-09-24T15:55:02.628Z,23.30
2022-09-24T15:57:04.290Z,23.27
2022-09-24T15:59:14.482Z,23.23
2022-09-24T16:01:19.923Z,23.20
2022-09-24T16:03:29.980Z,23.16
2022-09-24T16:05:31.886Z,23.16
2022-09-24T16:07:33.409Z,23.12
2022-09-24T16:09:35.281Z,23.10
2022-09-24T16:11:36.860Z,23.08
2022-09-24T16:13:38.639Z,23.04
2022-09-24T16:15:40.871Z,23.00
2022-09-24T16:17:43.634Z,22.97
2022-09-24T16:19:45.344Z,22.94
2022-09-24T16:21:53.220Z,22.90
2022-09-24T16:23:56.094Z,22.86
2022-09-24T16:25:59.379Z,22.82
2022-09-24T16:28:01.485Z,22.78
2022-09-24T16:30:04.968Z,22.75
2022-09-24T16:32:06.927Z,22.70
2022-09-24T16:34:08.851Z,22.67
2022-09-24T16:36:11.078Z,22.65
2022-09-24T16:38:12.788Z,22.60
2022-09-24T16:40:15.501Z,22.57
2022-09-24T16:42:17.277Z,22.53
2022-09-24T16:44:19.462Z,22.51
2022-09-24T16:46:24.286Z,22.47
2022-09-24T16:48:26.080Z,22.44
2022-09-24T16:50:28.207Z,22.40
2022-09-24T16:52:31.426Z,22.36
2022-09-24T16:54:36.005Z,22.34
2022-09-24T16:56:38.601Z,22.31
2022-09-24T16:58:45.065Z,22.26
2022-09-24T17:00:46.505Z,22.24
2022-09-24T17:02:48.119Z,22.20
2022-09-24T17:04:49.949Z,22.17
2022-09-24T17:06:54.710Z,22.13
2022-09-24T17:09:18.121Z,22.08
2022-09-24T17:11:21.402Z,22.04
2022-09-24T17:13:23.159Z,22.00
2022-09-24T17:15:24.860Z,21.97
2022-09-24T17:17:26.404Z,21.92
2022-09-24T17:19:28.117Z,21.88
2022-09-24T17:21:29.910Z,21.85
2022-09-24T17:23:31.452Z,21.82
2022-09-24T17:25:33.068Z,21.78
2022-09-24T17:27:40.197Z,21.76
2022-09-24T17:29:43.037Z,21.72
2022-09-24T17:31:46.762Z,21.68
2022-09-24T17:33:55.807Z,21.63
2022-09-24T17:36:03.983Z,21.58
2022-09-24T17:38:07.790Z,21.56
2022-09-24T17:40:11.078Z,21.51
2022-09-24T17:42:12.875Z,21.47
2022-09-24T17:44:14.483Z,21.44
2022-09-24T17:46:21.621Z,21.42
2022-09-24T17:48:23.617Z,21.38
2022-09-24T17:50:25.220Z,21.35
2022-09-24T17:52:27.994Z,21.31
2022-09-24T17:54:32.029Z,21.26
2022-09-24T17:56:38.588Z,21.23
2022-09-24T17:58:44.722Z,21.21
2022-09-24T18:00:47.354Z,21.16
2022-09-24T18:02:56.668Z,21.13
2022-09-24T18:04:58.221Z,21.10
2022-09-24T18:07:00.004Z,21.07
2022-09-24T18:09:04.887Z,21.04
2022-09-24T18:11:13.188Z,21.00
2022-09-24T18:13:16.505Z,20.97
2022-09-24T18:15:18.232Z,20.94
2022-09-24T18:17:20.079Z,20.92
2022-09-24T18:19:23.237Z,20.88
2022-09-24T18:21:31.270Z,20.84
2022-09-24T18:23:35.215Z,20.80
2022-09-24T18:25:36.935Z,20.77
2022-09-24T18:27:38.552Z,20.73
2022-09-24T18:29:46.627Z,20.70
2022-09-24T18:31:51.757Z,20.66
2022-09-24T18:33:56.749Z,20.62
2022-09-24T18:36:02.544Z,20.58
2022-09-24T18:38:03.991Z,20.55
2022-09-24T18:40:06.300Z,20.52
2022-09-24T18:42:08.007Z,20.48
2022-09-24T18:44:15.332Z,20.44
2022-09-24T18:46:19.317Z,20.41
2022-09-24T18:48:21.375Z,20.39
2022-09-24T18:50:26.273Z,20.35
2022-09-24T18:52:28.855Z,20.33
2022-09-24T18:54:31.126Z,20.30
2022-09-24T18:56:33.370Z,20.25
2022-09-24T18:58:35.401Z,20.24
2022-09-24T19:00:51.071Z,20.20
2022-09-24T19:02:54.548Z,20.18
2022-09-24T19:04:59.064Z,20.15
2022-09-24T19:07:01.062Z,20.14
2022-09-24T19:09:07.731Z,20.12
2022-09-24T19:11:15.723Z,20.08
2022-09-24T19:13:23.939Z,20.06
2022-09-24T19:15:28.313Z,20.03
2022-09-24T19:17:30.164Z,20.01
2022-09-24T19:19:32.275Z,19.99
2022-09-24T19:21:37.200Z,19.97
2022-09-24T19:23:41.287Z,19.95
2022-09-24T19:25:49.310Z,19.92
2022-09-24T19:27:51.116Z,19.91
2022-09-24T19:29:53.776Z,19.86
2022-09-24T19:31:55.313Z,19.85
2022-09-24T19:33:58.674Z,19.83
2022-09-24T19:36:02.938Z,19.81
2022-09-24T19:38:04.639Z,19.78
2022-09-24T19:40:13.199Z,19.76
2022-09-24T19:42:15.134Z,19.74
2022-09-24T19:44:17.386Z,19.73
2022-09-24T19:46:24.140Z,19.70
2022-09-24T19:48:30.984Z,19.67
2022-09-24T19:50:34.388Z,19.64
2022-09-24T19:52:35.876Z,19.62
2022-09-24T19:54:40.782Z,19.60
2022-09-24T19:56:42.337Z,19.58
2022-09-24T19:58:47.273Z,19.55
2022-09-24T20:00:49.058Z,19.54
2022-09-24T20:02:51.843Z,19.51
2022-09-24T20:04:56.472Z,19.50
2022-09-24T20:07:02.316Z,19.46
2022-09-24T20:09:09.554Z,19.43
2022-09-24T20:11:15.085Z,19.41
2022-09-24T20:13:17.115Z,19.38
2022-09-24T20:15:22.255Z,19.35
2022-09-24T20:17:24.055Z,19.33
2022-09-24T20:19:26.009Z,19.31
2022-09-24T20:21:35.062Z,19.26
2022-09-24T20:23:42.404Z,19.24
2022-09-24T20:26:14.680Z,19.20
2022-09-24T20:28:19.551Z,19.18
2022-09-24T20:30:23.901Z,19.14
2022-09-24T20:32:25.479Z,19.12
2022-09-24T20:34:43.579Z,19.09
2022-09-24T20:36:45.177Z,19.05
2022-09-24T20:38:47.826Z,19.02
2022-09-24T20:40:49.753Z,19.00
2022-09-24T20:42:51.480Z,18.99
2022-09-24T20:44:53.546Z,18.96
2022-09-24T20:46:58.095Z,18.94
2022-09-24T20:49:03.275Z,18.93
2022-09-24T20:51:13.652Z,18.90
2022-09-24T20:53:15.337Z,18.88
2022-09-24T20:55:17.038Z,18.87
2022-09-24T20:57:18.712Z,18.85
2022-09-24T20:59:20.540Z,18.84
2022-09-24T21:01:22.530Z,18.82
2022-09-24T21:03:43.260Z,18.80
2022-09-24T21:05:49.156Z,18.78
2022-09-24T21:07:55.339Z,18.76
2022-09-24T21:09:57.091Z,18.74
2022-09-24T21:11:58.594Z,18.72
2022-09-24T21:14:03.854Z,18.71
2022-09-24T21:16:05.648Z,18.70
2022-09-24T21:18:22.398Z,18.68
2022-09-24T21:20:28.850Z,18.67
2022-09-24T21:22:30.342Z,18.65
2022-09-24T21:24:32.052Z,18.64
2022-09-24T21:26:36.289Z,18.62
2022-09-24T21:28:37.984Z,18.61
2022-09-24T21:30:42.538Z,18.59
2022-09-24T21:32:45.086Z,18.59
2022-09-24T21:34:46.797Z,18.57
2022-09-24T21:36:48.738Z,18.56
2022-09-24T21:38:58.557Z,18.54
2022-09-24T21:41:01.253Z,18.53
2022-09-24T21:43:05.868Z,18.51
2022-09-24T21:45:08.278Z,18.51
2022-09-24T21:47:09.783Z,18.49
2022-09-24T21:49:16.312Z,18.49
2022-09-24T21:51:21.988Z,18.47
2022-09-24T21:53:23.547Z,18.45
2022-09-24T21:55:25.688Z,18.44
2022-09-24T21:57:27.301Z,18.45
2022-09-24T21:59:47.613Z,18.44
2022-09-24T22:01:49.407Z,18.42
2022-09-24T22:03:52.515Z,18.41
2022-09-24T22:05:55.077Z,18.39
2022-09-24T22:07:56.637Z,18.41
2022-09-24T22:09:59.373Z,18.39
2022-09-24T22:12:04.542Z,18.38
2022-09-24T22:14:06.338Z,18.37
2022-09-24T22:16:10.678Z,18.37
2022-09-24T22:18:12.164Z,18.36
2022-09-24T22:20:13.907Z,18.36
2022-09-24T22:22:16.698Z,18.34
2022-09-24T22:24:21.298Z,18.34
2022-09-24T22:26:27.260Z,18.33
2022-09-24T22:28:29.469Z,18.33
2022-09-24T22:30:34.178Z,18.33
2022-09-24T22:32:35.863Z,18.32
2022-09-24T22:34:56.227Z,18.33
2022-09-24T22:36:57.785Z,18.31
2022-09-24T22:39:00.564Z,18.31
2022-09-24T22:41:03.991Z,18.30
2022-09-24T22:43:08.289Z,18.30
2022-09-24T22:45:13.671Z,18.29
2022-09-24T22:47:15.143Z,18.28
2022-09-24T22:49:19.670Z,18.28
2022-09-24T22:51:21.763Z,18.26
2022-09-24T22:53:23.480Z,18.26
2022-09-24T22:55:25.100Z,18.25
2022-09-24T22:57:29.504Z,18.23
2022-09-24T22:59:31.445Z,18.21
2022-09-24T23:01:38.990Z,18.20
2022-09-24T23:03:41.220Z,18.20
2022-09-24T23:05:43.147Z,18.20
2022-09-24T23:07:44.932Z,18.19
2022-09-24T23:09:47.409Z,18.18
2022-09-24T23:11:48.823Z,18.17
2022-09-24T23:13:59.737Z,18.16
2022-09-24T23:16:34.700Z,18.13
2022-09-24T23:18:37.641Z,18.14
2022-09-24T23:20:39.152Z,18.14
2022-09-24T23:22:40.721Z,18.15
2022-09-24T23:24:42.838Z,18.13
2022-09-24T23:26:45.467Z,18.14
2022-09-24T23:29:00.950Z,18.13
2022-09-24T23:31:06.460Z,18.13
2022-09-24T23:33:07.884Z,18.13
2022-09-24T23:35:12.383Z,18.12
2022-09-24T23:37:13.911Z,18.12
2022-09-24T23:39:15.418Z,18.11
2022-09-24T23:41:17.384Z,18.11
2022-09-24T23:43:19.855Z,18.12
2022-09-24T23:45:21.589Z,18.11
2022-09-24T23:47:23.219Z,18.11
2022-09-24T23:49:24.765Z,18.10
2022-09-24T23:51:26.433Z,18.08
2022-09-24T23:53:28.082Z,18.06
2022-09-24T23:55:29.596Z,18.06
2022-09-24T23:57:31.015Z,18.04
2022-09-24T23:59:32.921Z,18.04
